GII weather

Siguiri Airport
Siguiri, Kankan Region, Guinea

Public forecast

Using degrees Celsius for public forecast. Weather courtesy of forecast.io.

METAR (pilot weather report)

Report is more than 6 hours old.

Closest report is Bougouni Airport, 97.1 nm (179.8 km) E. Retrieved 2017/03/31 06:00 UTC (2 years ago):

GABG 310600Z 00000KT CAVOK 28/19 Q////

TAF (pilot weather forecast)

Forecast is more than 12 hours old.

Closest forecast is Modibo Keita International Airport, 97.3 nm (180.3 km) NE. Retrieved 2019/03/19 00:51 UTC (1 day ago):

TAF GABS 192300Z 2000/2106 23006KT 8000 NSC PROB30 TEMPO 2009/2014 4000 DU